createdAt,value
2023-10-04T00:00:28.819Z,15.20
2023-10-04T00:02:56.181Z,15.20
2023-10-04T00:05:24.261Z,15.20
2023-10-04T00:07:52.662Z,15.10
2023-10-04T00:10:20.308Z,15.10
2023-10-04T00:12:47.709Z,15.10
2023-10-04T00:15:15.052Z,15.10
2023-10-04T00:17:43.731Z,15.10
2023-10-04T00:20:15.318Z,15.00
2023-10-04T00:22:42.707Z,15.00
2023-10-04T00:25:13.070Z,14.90
2023-10-04T00:27:43.814Z,14.90
2023-10-04T00:30:15.752Z,14.80
2023-10-04T00:32:43.320Z,14.80
2023-10-04T00:35:13.656Z,14.80
2023-10-04T00:37:43.912Z,14.80
2023-10-04T00:40:19.644Z,14.80
2023-10-04T00:42:51.175Z,14.70
2023-10-04T00:45:18.715Z,14.70
2023-10-04T00:47:48.935Z,14.70
2023-10-04T00:50:17.678Z,14.70
2023-10-04T00:52:48.520Z,14.60
2023-10-04T00:55:20.763Z,14.60
2023-10-04T00:57:51.247Z,14.50
2023-10-04T01:00:18.819Z,14.50
2023-10-04T01:02:46.223Z,14.50
2023-10-04T01:05:13.525Z,14.40
2023-10-04T01:07:41.411Z,14.40
2023-10-04T01:10:15.455Z,14.40
2023-10-04T01:12:47.331Z,14.30
2023-10-04T01:15:27.243Z,14.30
2023-10-04T01:17:54.823Z,14.30
2023-10-04T01:20:24.596Z,14.30
2023-10-04T01:22:52.407Z,14.20
2023-10-04T01:25:20.362Z,14.30
2023-10-04T01:27:47.694Z,14.20
2023-10-04T01:30:15.221Z,14.20
2023-10-04T01:32:42.246Z,14.10
2023-10-04T01:35:09.816Z,14.00
2023-10-04T01:37:40.152Z,14.00
2023-10-04T01:40:13.708Z,14.00
2023-10-04T01:42:41.760Z,13.90
2023-10-04T01:45:13.028Z,13.80
2023-10-04T01:47:40.231Z,13.80
2023-10-04T01:50:08.787Z,13.70
2023-10-04T01:52:36.809Z,13.60
2023-10-04T01:55:07.443Z,13.60
2023-10-04T01:57:36.270Z,13.50
2023-10-04T02:00:03.371Z,13.50
2023-10-04T02:02:30.404Z,13.50
2023-10-04T02:04:57.636Z,13.40
2023-10-04T02:07:25.065Z,13.30
2023-10-04T02:09:54.664Z,13.20
2023-10-04T02:12:23.724Z,13.20
2023-10-04T02:14:54.966Z,13.20
2023-10-04T02:17:23.629Z,13.20
2023-10-04T02:19:50.761Z,13.40
2023-10-04T02:22:19.758Z,13.40
2023-10-04T02:24:46.780Z,13.40
2023-10-04T02:27:13.890Z,13.30
2023-10-04T02:29:42.163Z,13.40
2023-10-04T02:32:11.855Z,13.40
2023-10-04T02:34:39.786Z,13.30
2023-10-04T02:37:08.059Z,13.30
2023-10-04T02:39:38.571Z,13.20
2023-10-04T02:42:13.151Z,13.30
2023-10-04T02:44:43.269Z,13.20
2023-10-04T02:47:10.832Z,13.20
2023-10-04T02:49:41.391Z,13.00
2023-10-04T02:52:09.369Z,12.90
2023-10-04T02:54:38.125Z,12.80
2023-10-04T02:57:05.637Z,12.70
2023-10-04T02:59:34.362Z,12.60
2023-10-04T03:02:01.755Z,12.70
2023-10-04T03:04:29.701Z,12.80
2023-10-04T03:06:58.073Z,12.90
2023-10-04T03:09:25.950Z,12.90
2023-10-04T03:11:54.605Z,13.00
2023-10-04T03:14:21.638Z,13.00
2023-10-04T03:16:49.017Z,13.00
2023-10-04T03:19:18.409Z,12.90
2023-10-04T03:21:47.611Z,13.00
2023-10-04T03:24:15.550Z,13.00
2023-10-04T03:26:45.182Z,12.90
2023-10-04T03:29:12.827Z,12.90
2023-10-04T03:31:40.914Z,12.90
2023-10-04T03:34:08.827Z,12.80
2023-10-04T03:36:40.031Z,12.80
2023-10-04T03:39:11.508Z,12.80
2023-10-04T03:41:38.835Z,12.80
2023-10-04T03:44:06.946Z,12.70
2023-10-04T03:46:34.125Z,12.70
2023-10-04T03:49:04.589Z,12.60
2023-10-04T03:51:32.279Z,12.60
2023-10-04T03:53:59.902Z,12.70
2023-10-04T03:56:27.368Z,12.60
2023-10-04T03:58:55.693Z,12.60
2023-10-04T04:01:23.356Z,12.70
2023-10-04T04:03:51.750Z,12.70
2023-10-04T04:06:19.362Z,12.70
2023-10-04T04:08:48.792Z,12.70
2023-10-04T04:11:15.944Z,12.80
2023-10-04T04:13:43.381Z,12.80
2023-10-04T04:16:13.202Z,12.80
2023-10-04T04:18:40.727Z,12.70
2023-10-04T04:21:08.579Z,12.70
2023-10-04T04:23:36.562Z,12.80
2023-10-04T04:26:07.610Z,12.70
2023-10-04T04:28:37.068Z,12.80
2023-10-04T04:31:10.856Z,12.80
2023-10-04T04:33:40.489Z,12.70
2023-10-04T04:36:17.953Z,12.70
2023-10-04T04:38:46.550Z,12.70
2023-10-04T04:41:14.474Z,12.70
2023-10-04T04:43:41.632Z,12.80
2023-10-04T04:46:13.768Z,12.70
2023-10-04T04:48:41.571Z,12.70
2023-10-04T04:51:11.744Z,12.60
2023-10-04T04:53:43.437Z,12.60
2023-10-04T04:56:15.901Z,12.60
2023-10-04T04:58:48.898Z,12.60
2023-10-04T05:01:17.431Z,12.60
2023-10-04T05:03:49.172Z,12.50
2023-10-04T05:06:22.189Z,12.50
2023-10-04T05:08:52.775Z,12.40
2023-10-04T05:11:20.650Z,12.40
2023-10-04T05:13:47.949Z,12.30
2023-10-04T05:16:15.138Z,12.20
2023-10-04T05:18:42.152Z,12.20
2023-10-04T05:21:12.217Z,12.10
2023-10-04T05:23:40.040Z,12.20
2023-10-04T05:26:10.160Z,12.30
2023-10-04T05:28:37.266Z,12.40
2023-10-04T05:31:04.572Z,12.50
2023-10-04T05:33:32.402Z,12.60
2023-10-04T05:36:01.867Z,12.60
2023-10-04T05:38:30.162Z,12.60
2023-10-04T05:40:58.953Z,12.70
2023-10-04T05:43:26.379Z,12.80
2023-10-04T05:45:53.841Z,12.80
2023-10-04T05:48:21.670Z,12.80
2023-10-04T05:50:52.226Z,12.80
2023-10-04T05:53:23.564Z,12.80
2023-10-04T05:55:51.106Z,12.80
2023-10-04T05:58:19.098Z,13.00
2023-10-04T06:00:53.531Z,12.90
2023-10-04T06:03:21.690Z,13.00
2023-10-04T06:05:48.811Z,13.00
2023-10-04T06:08:23.883Z,13.10
2023-10-04T06:10:52.699Z,13.20
2023-10-04T06:13:20.358Z,13.20
2023-10-04T06:15:48.882Z,13.30
2023-10-04T06:18:19.315Z,13.50
2023-10-04T06:20:47.137Z,13.60
2023-10-04T06:23:16.394Z,13.50
2023-10-04T06:26:08.678Z,13.50
2023-10-04T06:28:35.629Z,13.60
2023-10-04T06:31:06.229Z,13.50
2023-10-04T06:33:33.320Z,13.50
2023-10-04T06:36:00.438Z,13.50
2023-10-04T06:38:27.482Z,13.60
2023-10-04T06:40:54.409Z,13.60
2023-10-04T06:43:21.994Z,13.60
2023-10-04T06:45:49.099Z,13.60
2023-10-04T06:48:16.289Z,13.50
2023-10-04T06:50:45.784Z,13.60
2023-10-04T06:53:14.338Z,13.60
2023-10-04T06:55:42.268Z,13.70
2023-10-04T06:58:12.139Z,13.60
2023-10-04T07:00:40.087Z,13.60
2023-10-04T07:03:07.294Z,13.60
2023-10-04T07:05:39.117Z,13.60
2023-10-04T07:08:07.461Z,13.60
2023-10-04T07:10:35.181Z,13.60
2023-10-04T07:13:06.360Z,13.60
2023-10-04T07:15:38.328Z,13.70
2023-10-04T07:18:09.418Z,13.70
2023-10-04T07:20:36.844Z,13.70
2023-10-04T07:23:04.889Z,13.80
2023-10-04T07:25:33.743Z,13.80
2023-10-04T07:28:03.214Z,13.90
2023-10-04T07:30:31.223Z,13.90
2023-10-04T07:33:01.455Z,13.90
2023-10-04T07:35:28.733Z,14.00
2023-10-04T07:37:58.435Z,14.00
2023-10-04T07:40:28.395Z,14.10
2023-10-04T07:42:55.733Z,14.10
2023-10-04T07:45:24.103Z,14.20
2023-10-04T07:47:51.968Z,14.20
2023-10-04T07:50:30.040Z,14.30
2023-10-04T07:53:00.264Z,14.50
2023-10-04T07:55:27.619Z,14.50
2023-10-04T07:57:55.582Z,14.40
2023-10-04T08:00:22.920Z,14.40
2023-10-04T08:02:53.836Z,14.20
2023-10-04T08:05:28.661Z,14.20
2023-10-04T08:07:56.659Z,14.30
2023-10-04T08:10:26.463Z,14.40
2023-10-04T08:12:54.617Z,14.50
2023-10-04T08:15:23.378Z,14.50
2023-10-04T08:17:50.865Z,14.50
2023-10-04T08:20:21.549Z,14.70
2023-10-04T08:22:48.637Z,14.80
2023-10-04T08:25:24.992Z,14.80
2023-10-04T08:27:52.207Z,15.00
2023-10-04T08:30:20.419Z,15.00
2023-10-04T08:32:51.801Z,15.20
2023-10-04T08:35:45.097Z,15.00
2023-10-04T08:38:12.188Z,15.10
2023-10-04T08:40:44.009Z,15.00
2023-10-04T08:43:11.197Z,14.80
2023-10-04T08:45:38.748Z,14.80
2023-10-04T08:48:06.744Z,14.90
2023-10-04T08:50:39.897Z,15.00
2023-10-04T08:53:11.692Z,14.90
2023-10-04T08:55:42.424Z,14.90
2023-10-04T08:58:10.525Z,14.80
2023-10-04T09:00:38.351Z,14.80
2023-10-04T09:03:06.443Z,14.80
2023-10-04T09:05:34.532Z,14.80
2023-10-04T09:08:05.664Z,14.80
2023-10-04T09:10:37.519Z,14.90
2023-10-04T09:13:06.156Z,15.10
2023-10-04T09:15:33.274Z,15.20
2023-10-04T09:18:04.299Z,15.20
2023-10-04T09:20:33.059Z,15.10
2023-10-04T09:23:00.999Z,15.10
2023-10-04T09:25:41.456Z,15.00
2023-10-04T09:28:10.806Z,15.00
2023-10-04T09:30:38.118Z,15.10
2023-10-04T09:33:25.147Z,15.20
2023-10-04T09:35:53.146Z,15.20
2023-10-04T09:38:21.905Z,15.30
2023-10-04T09:40:53.314Z,15.40
2023-10-04T09:43:37.837Z,15.40
2023-10-04T09:46:14.314Z,15.50
2023-10-04T09:48:51.084Z,15.60
2023-10-04T09:51:18.343Z,15.40
2023-10-04T09:53:45.533Z,15.20
2023-10-04T09:56:13.527Z,15.40
2023-10-04T09:58:50.570Z,15.50
2023-10-04T10:01:19.819Z,15.80
2023-10-04T10:04:01.263Z,15.90
2023-10-04T10:06:28.875Z,15.80
2023-10-04T10:09:05.386Z,15.80
2023-10-04T10:11:34.355Z,15.70
2023-10-04T10:14:03.853Z,15.70
2023-10-04T10:16:31.178Z,15.80
2023-10-04T10:18:58.954Z,15.90
2023-10-04T10:22:04.420Z,15.80
2023-10-04T10:24:31.938Z,15.70
2023-10-04T10:27:07.972Z,15.90
2023-10-04T10:29:37.779Z,16.00
2023-10-04T10:32:07.783Z,16.00
2023-10-04T10:34:34.949Z,16.00
2023-10-04T10:37:11.686Z,15.70
2023-10-04T10:39:47.481Z,15.70
2023-10-04T10:42:15.753Z,15.70
2023-10-04T10:44:43.241Z,15.80
2023-10-04T10:47:23.744Z,15.80
2023-10-04T10:49:57.069Z,15.80
2023-10-04T10:52:29.215Z,15.90
2023-10-04T10:54:57.444Z,16.00
2023-10-04T10:57:25.781Z,16.20
2023-10-04T10:59:57.716Z,16.40
2023-10-04T11:02:26.375Z,16.20
2023-10-04T11:04:53.948Z,16.10
2023-10-04T11:07:23.182Z,16.30
2023-10-04T11:09:54.775Z,16.40
2023-10-04T11:12:25.676Z,16.40
2023-10-04T11:14:54.247Z,16.20
2023-10-04T11:17:24.517Z,16.30
2023-10-04T11:19:52.345Z,16.20
2023-10-04T11:22:21.300Z,16.20
2023-10-04T11:24:48.540Z,16.20
2023-10-04T11:27:30.433Z,16.20
2023-10-04T11:29:57.921Z,16.10
2023-10-04T11:32:25.262Z,16.30
2023-10-04T11:34:52.534Z,16.30
2023-10-04T11:37:19.484Z,16.30
2023-10-04T11:39:46.527Z,16.20
2023-10-04T11:42:18.726Z,16.20
2023-10-04T11:44:45.835Z,16.20
2023-10-04T11:47:13.030Z,16.10
2023-10-04T11:49:41.613Z,16.10
2023-10-04T11:52:08.804Z,16.20
2023-10-04T11:54:40.642Z,16.30
2023-10-04T11:57:08.028Z,16.30
2023-10-04T11:59:35.123Z,16.40
2023-10-04T12:02:03.751Z,16.60
2023-10-04T12:04:32.639Z,16.60
2023-10-04T12:07:01.086Z,16.50
2023-10-04T12:09:29.109Z,16.40
2023-10-04T12:11:58.322Z,16.50
2023-10-04T12:14:25.361Z,16.50
2023-10-04T12:16:53.602Z,16.70
2023-10-04T12:19:20.933Z,17.40
2023-10-04T12:21:48.893Z,17.80
2023-10-04T12:24:16.462Z,18.10
2023-10-04T12:26:44.158Z,18.80
2023-10-04T12:29:12.599Z,19.20
2023-10-04T12:31:40.143Z,19.60
2023-10-04T12:34:07.575Z,19.80
2023-10-04T12:36:54.464Z,19.70
2023-10-04T12:39:22.803Z,19.60
2023-10-04T12:41:53.949Z,18.80
2023-10-04T12:44:21.107Z,18.20
2023-10-04T12:46:50.978Z,17.50
2023-10-04T12:49:20.041Z,17.00
2023-10-04T12:51:47.475Z,16.90
2023-10-04T12:54:14.558Z,16.90
2023-10-04T12:56:42.916Z,16.80
2023-10-04T12:59:11.585Z,16.70
2023-10-04T13:01:39.482Z,16.40
2023-10-04T13:07:48.856Z,16.80
2023-10-04T13:13:09.917Z,16.90
2023-10-04T13:15:36.956Z,17.00
2023-10-04T13:18:08.972Z,17.60
2023-10-04T13:20:39.135Z,18.40
2023-10-04T13:23:08.828Z,18.80
2023-10-04T13:25:37.505Z,19.00
2023-10-04T13:28:06.997Z,19.40
2023-10-04T13:30:34.783Z,19.60
2023-10-04T13:33:03.555Z,19.20
2023-10-04T13:35:30.765Z,20.00
2023-10-04T13:37:57.782Z,21.30
2023-10-04T13:40:25.331Z,22.10
2023-10-04T13:42:55.288Z,22.90
2023-10-04T13:45:25.384Z,22.80
2023-10-04T13:47:52.498Z,22.50
2023-10-04T13:50:28.635Z,22.20
2023-10-04T13:52:55.600Z,22.20
2023-10-04T13:55:27.482Z,22.10
2023-10-04T13:58:00.486Z,22.60
2023-10-04T14:00:27.607Z,22.60
2023-10-04T14:03:00.387Z,22.70
2023-10-04T14:05:28.276Z,22.60
2023-10-04T14:07:55.906Z,21.40
2023-10-04T14:10:24.840Z,20.30
2023-10-04T14:12:59.356Z,19.40
2023-10-04T14:15:27.285Z,19.20
2023-10-04T14:17:58.053Z,19.20
2023-10-04T14:20:25.446Z,19.40
2023-10-04T14:22:52.888Z,19.20
2023-10-04T14:25:22.900Z,18.80
2023-10-04T14:27:50.637Z,18.60
2023-10-04T14:30:22.762Z,18.40
2023-10-04T14:32:50.705Z,18.30
2023-10-04T14:35:18.407Z,18.20
2023-10-04T14:37:45.375Z,18.40
2023-10-04T14:40:15.674Z,18.40
2023-10-04T14:42:42.826Z,18.40
2023-10-04T14:45:10.295Z,18.30
2023-10-04T14:47:37.513Z,18.30
2023-10-04T14:50:14.235Z,18.20
2023-10-04T14:52:42.782Z,18.50
2023-10-04T14:55:10.431Z,18.50
2023-10-04T14:57:39.066Z,18.40
2023-10-04T15:00:12.199Z,18.30
2023-10-04T15:02:40.019Z,18.20
2023-10-04T15:05:07.750Z,18.10
2023-10-04T15:07:35.057Z,18.10
2023-10-04T15:10:04.080Z,18.20
2023-10-04T15:12:32.523Z,18.10
2023-10-04T15:15:00.704Z,18.00
2023-10-04T15:17:28.217Z,17.70
2023-10-04T15:19:55.314Z,17.30
2023-10-04T15:22:22.255Z,17.00
2023-10-04T15:24:50.734Z,16.70
2023-10-04T15:27:19.688Z,16.40
2023-10-04T15:29:46.910Z,16.20
2023-10-04T15:32:14.782Z,16.10
2023-10-04T15:34:41.676Z,15.70
2023-10-04T15:37:10.527Z,15.50
2023-10-04T15:39:37.615Z,15.40
2023-10-04T15:42:05.724Z,15.10
2023-10-04T15:44:32.876Z,15.00
2023-10-04T15:47:00.225Z,14.70
2023-10-04T15:49:27.357Z,14.70
2023-10-04T15:51:54.569Z,14.80
2023-10-04T15:54:21.759Z,14.70
2023-10-04T15:56:48.781Z,14.50
2023-10-04T15:59:15.987Z,14.30
2023-10-04T16:01:42.934Z,14.20
2023-10-04T16:04:11.978Z,13.90
2023-10-04T16:06:40.080Z,13.70
2023-10-04T16:09:08.492Z,13.40
2023-10-04T16:11:35.621Z,13.50
2023-10-04T16:14:02.792Z,13.40
2023-10-04T16:16:29.841Z,13.30
2023-10-04T16:18:56.787Z,12.90
2023-10-04T16:21:23.916Z,12.60
2023-10-04T16:24:03.652Z,12.50
2023-10-04T16:26:30.636Z,12.30
2023-10-04T16:28:57.511Z,12.20
2023-10-04T16:31:24.533Z,12.30
2023-10-04T16:33:51.561Z,12.30
2023-10-04T16:36:18.475Z,12.30
2023-10-04T16:38:45.443Z,12.50
2023-10-04T16:41:12.365Z,12.50
2023-10-04T16:43:39.552Z,12.50
2023-10-04T16:46:06.520Z,12.40
2023-10-04T16:48:34.161Z,12.30
2023-10-04T16:51:01.114Z,12.30
2023-10-04T16:53:35.820Z,12.10
2023-10-04T16:56:02.844Z,11.90
2023-10-04T16:58:29.710Z,11.70
2023-10-04T17:00:56.604Z,11.60
2023-10-04T17:03:23.701Z,11.70
2023-10-04T17:05:50.596Z,11.70
2023-10-04T17:08:17.440Z,11.70
2023-10-04T17:10:44.251Z,11.80
2023-10-04T17:13:11.829Z,11.80
2023-10-04T17:15:38.977Z,11.70
2023-10-04T17:18:06.417Z,11.50
2023-10-04T17:20:33.411Z,11.50
2023-10-04T17:23:00.737Z,11.50
2023-10-04T17:25:27.575Z,11.00
2023-10-04T17:27:54.576Z,10.80
2023-10-04T17:30:21.742Z,11.00
2023-10-04T17:32:48.891Z,11.00
2023-10-04T17:35:19.839Z,11.00
2023-10-04T17:37:47.406Z,10.90
2023-10-04T17:40:16.131Z,11.00
2023-10-04T17:42:50.762Z,10.90
2023-10-04T17:45:19.936Z,10.80
2023-10-04T17:47:50.385Z,10.80
2023-10-04T17:50:17.659Z,10.80
2023-10-04T17:52:46.443Z,10.80
2023-10-04T17:55:13.490Z,10.70
2023-10-04T17:57:44.944Z,10.70
2023-10-04T18:00:16.089Z,10.70
2023-10-04T18:02:43.369Z,10.50
2023-10-04T18:05:12.268Z,10.20
2023-10-04T18:07:39.224Z,10.10
2023-10-04T18:10:11.359Z,9.90
2023-10-04T18:12:38.556Z,10.00
2023-10-04T18:15:06.345Z,9.70
2023-10-04T18:17:33.307Z,9.70
2023-10-04T18:20:02.430Z,9.70
2023-10-04T18:22:29.894Z,9.90
2023-10-04T18:24:56.800Z,9.90
2023-10-04T18:27:23.968Z,9.80
2023-10-04T18:29:52.221Z,9.70
2023-10-04T18:32:19.597Z,9.60
2023-10-04T18:34:47.127Z,9.50
2023-10-04T18:37:14.166Z,9.40
2023-10-04T18:39:41.179Z,9.40
2023-10-04T18:42:10.438Z,9.30
2023-10-04T18:44:41.420Z,9.50
2023-10-04T18:47:08.700Z,9.60
2023-10-04T18:49:36.574Z,9.70
2023-10-04T18:52:03.739Z,9.80
2023-10-04T18:54:30.867Z,9.80
2023-10-04T18:56:58.222Z,9.70
2023-10-04T18:59:25.135Z,9.70
2023-10-04T19:01:52.177Z,9.70
2023-10-04T19:04:19.774Z,9.70
2023-10-04T19:06:46.730Z,9.60
2023-10-04T19:09:15.181Z,9.60
2023-10-04T19:11:42.089Z,9.60
2023-10-04T19:14:10.402Z,9.60
2023-10-04T19:16:37.429Z,9.70
2023-10-04T19:19:05.081Z,9.70
2023-10-04T19:21:32.096Z,9.40
2023-10-04T19:24:00.688Z,9.40
2023-10-04T19:26:27.677Z,9.30
2023-10-04T19:28:55.312Z,9.40
2023-10-04T19:31:22.537Z,9.40
2023-10-04T19:33:50.510Z,9.40
2023-10-04T19:36:18.024Z,9.40
2023-10-04T19:38:45.013Z,9.60
2023-10-04T19:41:15.100Z,9.40
2023-10-04T19:43:42.115Z,9.30
2023-10-04T19:46:09.835Z,9.30
2023-10-04T19:48:37.976Z,9.20
2023-10-04T19:51:08.958Z,9.10
2023-10-04T19:53:36.265Z,9.10
2023-10-04T19:56:05.443Z,9.00
2023-10-04T19:58:32.246Z,8.90
2023-10-04T20:00:59.494Z,8.90
2023-10-04T20:03:26.636Z,8.90
2023-10-04T20:05:54.284Z,8.90
2023-10-04T20:08:24.919Z,8.90
2023-10-04T20:10:51.734Z,8.90
2023-10-04T20:13:18.912Z,8.80
2023-10-04T20:15:47.696Z,8.80
2023-10-04T20:18:17.321Z,8.70
2023-10-04T20:20:44.340Z,8.80
2023-10-04T20:23:11.235Z,8.80
2023-10-04T20:25:38.426Z,8.90
2023-10-04T20:28:05.872Z,8.90
2023-10-04T20:30:33.084Z,8.90
2023-10-04T20:33:00.535Z,8.80
2023-10-04T20:35:27.531Z,8.80
2023-10-04T20:37:54.556Z,8.80
2023-10-04T20:40:22.726Z,8.90
2023-10-04T20:42:49.729Z,8.90
2023-10-04T20:45:16.937Z,8.80
2023-10-04T20:47:45.556Z,8.80
2023-10-04T20:50:17.015Z,8.70
2023-10-04T20:52:45.551Z,8.80
2023-10-04T20:55:13.853Z,8.90
2023-10-04T20:57:41.438Z,8.90
2023-10-04T21:00:12.755Z,8.90
2023-10-04T21:02:40.452Z,8.80
2023-10-04T21:05:08.669Z,8.80
2023-10-04T21:07:35.723Z,8.70
2023-10-04T21:10:02.727Z,8.70
2023-10-04T21:12:30.032Z,8.70
2023-10-04T21:14:57.362Z,8.70
2023-10-04T21:17:24.465Z,8.70
2023-10-04T21:19:52.610Z,8.80
2023-10-04T21:22:20.602Z,8.80
2023-10-04T21:24:48.519Z,8.80
2023-10-04T21:27:23.923Z,8.70
2023-10-04T21:29:51.521Z,8.60
2023-10-04T21:32:38.807Z,8.70
2023-10-04T21:35:19.132Z,8.70
2023-10-04T21:37:49.586Z,8.70
2023-10-04T21:40:22.410Z,8.60
2023-10-04T21:42:50.360Z,8.40
2023-10-04T21:45:27.035Z,8.30
2023-10-04T21:48:02.640Z,8.30
2023-10-04T21:50:30.734Z,8.30
2023-10-04T21:52:57.654Z,8.30
2023-10-04T21:55:24.889Z,8.30
2023-10-04T21:57:51.848Z,8.30
2023-10-04T22:00:45.398Z,8.20
2023-10-04T22:03:12.941Z,8.30
2023-10-04T22:05:42.867Z,8.10
2023-10-04T22:08:13.668Z,8.10
2023-10-04T22:10:42.827Z,8.20
2023-10-04T22:13:09.899Z,8.20
2023-10-04T22:15:37.474Z,8.20
2023-10-04T22:18:05.460Z,8.30
2023-10-04T22:20:32.690Z,8.30
2023-10-04T22:22:59.637Z,8.30
2023-10-04T22:25:28.627Z,8.20
2023-10-04T22:27:55.747Z,8.00
2023-10-04T22:30:23.897Z,8.00
2023-10-04T22:32:51.567Z,8.00
2023-10-04T22:35:24.137Z,8.00
2023-10-04T22:37:52.666Z,8.00
2023-10-04T22:40:20.415Z,8.10
2023-10-04T22:42:48.605Z,8.00
2023-10-04T22:45:16.733Z,8.00
2023-10-04T22:47:44.935Z,8.10
2023-10-04T22:50:13.216Z,8.00
2023-10-04T22:52:40.550Z,7.90
2023-10-04T22:55:10.860Z,7.80
2023-10-04T22:57:42.969Z,7.70
2023-10-04T23:00:26.741Z,7.80
2023-10-04T23:02:56.581Z,7.70
2023-10-04T23:05:26.429Z,7.80
2023-10-04T23:07:53.897Z,7.80
2023-10-04T23:10:24.094Z,7.90
2023-10-04T23:12:51.911Z,7.80
2023-10-04T23:15:31.114Z,7.70
2023-10-04T23:18:14.368Z,7.70
2023-10-04T23:20:41.563Z,7.70
2023-10-04T23:23:13.156Z,7.70
2023-10-04T23:25:40.686Z,7.80
2023-10-04T23:28:07.912Z,7.70
2023-10-04T23:30:37.005Z,7.70
2023-10-04T23:33:09.541Z,7.70
2023-10-04T23:35:42.483Z,7.60
2023-10-04T23:38:22.333Z,7.60
2023-10-04T23:40:50.788Z,7.60
2023-10-04T23:43:19.591Z,7.60
2023-10-04T23:45:49.872Z,7.60
2023-10-04T23:48:25.975Z,7.60
2023-10-04T23:50:57.400Z,7.50
2023-10-04T23:53:33.564Z,7.50
2023-10-04T23:56:01.636Z,7.60
2023-10-04T23:58:28.624Z,7.60
